Time;durP1;ratioP1;P1;durP2;ratioP2;P2;SDS_P1;SDS_P2;PMS_P1;PMS_P2;Temp;Humidity;BMP_temperature;BMP_pressure;BME280_temperature;BME280_humidity;BME280_pressure;Samples;Min_cycle;Max_cycle;Signal;HPM_P1;HPM_P2
2022/12/15 00:41:09;;;;;;;21.52;13.18;;;;;;;5.20;100.00;97869.25;5117279;27;20902;-92
2022/12/15 00:43:36;;;;;;;20.98;13.38;;;;;;;5.33;100.00;97894.50;5085227;28;20051;-94
2022/12/15 00:49:02;;;;;;;24.13;14.65;;;;;;;5.27;100.00;97904.25;5102962;27;20382;-92
2022/12/15 01:21:25;;;;;;;27.65;18.52;;;;;;;5.09;100.00;97927.44;5103262;27;20375;-93
2022/12/15 01:23:52;;;;;;;28.40;18.13;;;;;;;5.08;100.00;97932.75;5069261;28;20045;-92
2022/12/15 01:26:18;;;;;;;30.85;18.48;;;;;;;5.14;100.00;97937.94;5069247;28;20564;-95
2022/12/15 01:28:44;;;;;;;25.50;18.67;;;;;;;4.98;100.00;97910.97;5068782;28;20036;-95
2022/12/15 01:31:10;;;;;;;27.90;18.50;;;;;;;4.95;100.00;97903.13;5068566;28;20041;-92
2022/12/15 01:33:37;;;;;;;28.45;18.13;;;;;;;5.06;100.00;97918.75;5069293;28;20482;-92
2022/12/15 01:36:03;;;;;;;27.60;17.23;;;;;;;5.08;100.00;97932.75;5069766;28;20087;-93
2022/12/15 01:38:30;;;;;;;25.85;17.25;;;;;;;4.92;100.00;97908.44;5069228;28;20036;-93
2022/12/15 01:41:00;;;;;;;25.65;15.70;;;;;;;4.94;100.00;97922.44;5069686;28;20530;-93
2022/12/15 01:43:30;;;;;;;21.52;14.75;;;;;;;4.95;100.00;97929.47;5069741;28;20041;-92
2022/12/15 01:46:00;;;;;;;20.27;13.52;;;;;;;4.85;100.00;97896.28;5068966;28;20037;-94
2022/12/15 01:48:32;;;;;;;19.42;13.68;;;;;;;5.17;100.00;97918.53;5069507;28;20493;-94
2022/12/15 01:51:13;;;;;;;22.80;14.40;;;;;;;4.93;100.00;97897.03;5069842;28;20044;-94
2022/12/15 01:53:44;;;;;;;21.73;14.07;;;;;;;5.14;100.00;97927.38;5069215;28;20040;-93
2022/12/15 01:56:11;;;;;;;24.15;15.68;;;;;;;5.15;100.00;97924.69;5069284;28;20067;-94
2022/12/15 01:58:41;;;;;;;25.58;15.52;;;;;;;5.26;100.00;97936.81;5068899;28;20405;-92
2022/12/15 02:01:08;;;;;;;28.27;16.77;;;;;;;5.25;100.00;97929.81;5067085;28;20049;-93
2022/12/15 02:03:35;;;;;;;23.95;16.10;;;;;;;5.05;100.00;97909.97;5069219;28;20036;-92
2022/12/15 02:06:02;;;;;;;25.08;15.25;;;;;;;5.08;100.00;97935.41;5069107;28;20094;-94
2022/12/15 02:08:29;;;;;;;21.38;14.88;;;;;;;5.08;100.00;97938.91;5068571;28;20044;-93
2022/12/15 02:11:37;;;;;;;20.85;13.65;;;;;;;4.94;100.00;97907.53;5069214;28;20037;-93
2022/12/15 02:14:05;;;;;;;22.87;14.93;;;;;;;5.14;100.00;97928.25;5066488;28;20056;-93
2022/12/15 02:16:45;;;;;;;22.92;14.50;;;;;;;5.19;100.00;97924.66;5066433;28;20091;-92
2022/12/15 02:19:28;;;;;;;21.48;14.80;;;;;;;5.11;100.00;97899.28;5067162;28;20497;-92
2022/12/15 02:22:08;;;;;;;18.90;13.32;;;;;;;5.14;100.00;97899.25;5100825;28;20033;-94
2022/12/15 02:24:52;;;;;;;21.63;14.52;;;;;;;5.24;100.00;97917.50;5067626;28;20045;-94
2022/12/15 02:27:49;;;;;;;23.33;13.52;;;;;;;5.29;100.00;97910.38;5065981;28;20037;-93
2022/12/15 02:30:21;;;;;;;19.02;12.38;;;;;;;5.17;100.00;97885.13;5064798;28;20536;-92
2022/12/15 02:32:57;;;;;;;18.55;12.43;;;;;;;5.22;100.00;97885.91;5054799;28;20453;-95
2022/12/15 02:35:30;;;;;;;22.13;14.77;;;;;;;5.33;100.00;97890.97;5049919;28;20098;-93
2022/12/15 02:37:55;;;;;;;22.52;14.45;;;;;;;5.26;100.00;97881.47;5053752;28;20059;-93
2022/12/15 02:40:21;;;;;;;21.13;14.15;;;;;;;5.36;100.00;97898.84;5055305;28;20032;-95
2022/12/15 02:42:51;;;;;;;21.83;14.30;;;;;;;5.32;100.00;97897.16;5055027;28;20091;-92
2022/12/15 02:45:22;;;;;;;22.90;14.10;;;;;;;5.22;100.00;97879.78;5054182;28;20045;-94
2022/12/15 02:47:55;;;;;;;22.67;14.48;;;;;;;5.18;100.00;97867.56;5054767;28;20048;-93
2022/12/15 02:50:42;;;;;;;20.48;14.18;;;;;;;5.42;100.00;97917.16;5053246;28;20041;-93
2022/12/15 02:53:29;;;;;;;20.77;14.70;;;;;;;5.37;100.00;97907.59;5055246;28;20394;-94
2022/12/15 02:56:04;;;;;;;22.13;13.77;;;;;;;5.34;100.00;97921.72;5054154;28;20044;-93
2022/12/15 02:58:36;;;;;;;20.98;14.00;;;;;;;5.21;100.00;97884.19;5054823;28;20127;-93
2022/12/15 03:01:09;;;;;;;20.02;13.48;;;;;;;5.23;100.00;97885.03;5053222;28;20045;-93
2022/12/15 03:03:36;;;;;;;22.40;14.07;;;;;;;5.32;100.00;97895.38;5054310;28;20502;-93
2022/12/15 03:06:03;;;;;;;23.10;14.77;;;;;;;5.30;100.00;97886.63;5047681;28;20075;-92
2022/12/15 03:08:29;;;;;;;34.40;17.13;;;;;;;5.21;100.00;97881.56;5054765;28;20742;-93
2022/12/15 03:10:56;;;;;;;31.38;16.88;;;;;;;5.41;100.00;97904.00;5054544;28;20037;-93
2022/12/15 03:13:22;;;;;;;31.55;16.70;;;;;;;5.38;100.00;97889.13;5054389;28;20037;-93
2022/12/15 03:15:48;;;;;;;31.55;16.17;;;;;;;5.30;100.00;97875.22;5052245;28;20041;-93
2022/12/15 03:18:16;;;;;;;29.70;16.17;;;;;;;5.27;100.00;97878.78;5054355;28;20402;-94
2022/12/15 03:20:41;;;;;;;33.03;17.35;;;;;;;5.32;100.00;97881.34;5054008;28;20049;-94
2022/12/15 03:23:07;;;;;;;33.75;17.60;;;;;;;5.26;100.00;97873.53;5054189;28;20547;-91
2022/12/15 03:25:33;;;;;;;36.33;17.65;;;;;;;5.29;100.00;97887.53;5054481;28;20041;-92
2022/12/15 03:27:59;;;;;;;36.00;17.67;;;;;;;5.15;100.00;97864.09;5054677;28;20103;-94
2022/12/15 03:30:25;;;;;;;35.65;16.80;;;;;;;5.35;100.00;97904.97;5053716;28;20127;-94
2022/12/15 03:32:51;;;;;;;33.08;16.15;;;;;;;5.25;100.00;97856.00;5054123;28;20090;-93
2022/12/15 03:35:19;;;;;;;38.03;17.58;;;;;;;5.29;100.00;97869.09;5054596;28;20053;-92
2022/12/15 03:37:46;;;;;;;38.20;17.40;;;;;;;5.39;100.00;97879.44;5054029;28;20135;-93
2022/12/15 03:40:13;;;;;;;39.15;18.48;;;;;;;5.32;100.00;97891.88;5053939;28;20127;-94
2022/12/15 03:45:39;;;;;;;37.33;17.40;;;;;;;5.34;100.00;97896.22;5103259;27;20375;-92
2022/12/15 03:48:05;;;;;;;35.70;15.63;;;;;;;5.40;100.00;97876.78;5070111;28;20123;-92
2022/12/15 03:50:31;;;;;;;36.20;17.02;;;;;;;5.55;100.00;97892.28;5069777;28;20104;-92
2022/12/15 03:52:59;;;;;;;39.33;17.08;;;;;;;5.47;100.00;97870.47;5069943;28;20068;-93
2022/12/15 03:55:27;;;;;;;38.43;16.97;;;;;;;5.32;100.00;97853.19;5069959;28;20041;-92
2022/12/15 03:57:54;;;;;;;35.10;16.95;;;;;;;5.42;100.00;97872.34;5066411;28;20041;-92
2022/12/15 04:00:20;;;;;;;37.65;16.58;;;;;;;5.27;100.00;97844.53;5069505;28;20045;-95
2022/12/15 04:02:48;;;;;;;38.20;18.23;;;;;;;5.30;100.00;97867.31;5069790;28;20047;-93
2022/12/15 04:05:17;;;;;;;42.22;18.33;;;;;;;5.27;100.00;97865.63;5067728;28;20371;-94
2022/12/15 04:07:43;;;;;;;38.67;17.05;;;;;;;5.35;100.00;97873.34;5069614;28;20397;-93
2022/12/15 04:10:10;;;;;;;36.78;16.23;;;;;;;5.27;100.00;97856.81;5069334;28;20051;-91
2022/12/15 04:12:38;;;;;;;31.98;17.02;;;;;;;5.26;100.00;97855.97;5069684;28;20036;-93
2022/12/15 04:15:06;;;;;;;37.22;16.67;;;;;;;5.35;100.00;97881.25;5069425;28;20509;-93
2022/12/15 04:17:32;;;;;;;38.47;16.70;;;;;;;5.31;100.00;97864.66;5069721;28;20045;-92
2022/12/15 04:22:59;;;;;;;32.97;16.08;;;;;;;5.42;100.00;97874.09;5107078;27;20374;-93
2022/12/15 05:34:25;;;;;;;31.23;15.68;;;;;;;5.61;100.00;97911.50;5111081;27;20408;-91
2022/12/15 05:36:51;;;;;;;31.95;15.68;;;;;;;5.65;100.00;97915.81;5109888;28;20043;-92
2022/12/15 05:39:17;;;;;;;33.58;16.83;;;;;;;5.66;100.00;97915.78;5108612;28;20089;-92
2022/12/15 05:41:43;;;;;;;31.85;15.65;;;;;;;5.72;100.00;97928.81;5110086;28;20381;-94
2022/12/15 05:44:09;;;;;;;33.47;17.75;;;;;;;5.55;100.00;97904.56;5110189;28;20046;-92
2022/12/15 05:46:35;;;;;;;43.08;20.40;;;;;;;5.65;100.00;97921.94;5108745;28;20093;-92
2022/12/15 05:49:02;;;;;;;40.80;23.38;;;;;;;5.70;100.00;97930.66;5110189;28;20036;-93
2022/12/15 05:51:30;;;;;;;37.75;20.75;;;;;;;5.69;100.00;97935.94;5109950;28;20460;-93
2022/12/15 05:53:55;;;;;;;41.33;20.38;;;;;;;5.66;100.00;97926.34;5109955;28;20378;-92
2022/12/15 05:56:21;;;;;;;39.67;19.48;;;;;;;5.59;100.00;97918.56;5109710;28;20065;-94
2022/12/15 05:58:47;;;;;;;35.03;18.60;;;;;;;5.64;100.00;97933.41;5110263;28;20036;-93
2022/12/15 06:01:15;;;;;;;37.22;18.50;;;;;;;5.66;100.00;97926.34;5109320;28;20032;-91
2022/12/15 06:03:41;;;;;;;33.75;17.55;;;;;;;5.80;100.00;97939.22;5109856;28;20052;-93
2022/12/15 06:06:09;;;;;;;37.95;18.02;;;;;;;5.75;100.00;97938.47;5110049;28;20044;-92
2022/12/15 06:08:38;;;;;;;36.42;17.85;;;;;;;5.70;100.00;97948.22;5109695;28;20089;-93
2022/12/15 06:11:05;;;;;;;37.75;17.98;;;;;;;5.60;100.00;97933.50;5109138;28;20047;-92
2022/12/15 06:13:33;;;;;;;36.38;17.63;;;;;;;5.60;100.00;97955.47;5109751;28;20123;-93
2022/12/15 06:16:01;;;;;;;34.17;16.00;;;;;;;5.43;100.00;97941.75;5109748;28;20447;-92
2022/12/15 06:18:29;;;;;;;32.67;16.55;;;;;;;5.36;100.00;97927.84;5110790;28;20046;-93
2022/12/15 06:20:59;;;;;;;25.90;14.15;;;;;;;5.31;100.00;97937.56;5110340;28;20036;-93
2022/12/15 06:23:25;;;;;;;27.88;13.75;;;;;;;5.42;100.00;97958.47;5110730;28;20083;-93
2022/12/15 06:25:52;;;;;;;28.50;14.07;;;;;;;5.35;100.00;97940.13;5110697;28;20090;-93
2022/12/15 06:28:22;;;;;;;27.58;13.60;;;;;;;5.58;100.00;97972.25;5110341;28;20051;-92
2022/12/15 06:30:50;;;;;;;28.52;14.13;;;;;;;5.70;100.00;97978.13;5110381;28;20044;-94
2022/12/15 06:33:17;;;;;;;27.88;14.68;;;;;;;5.87;100.00;97959.28;5110155;28;20070;-94
2022/12/15 06:35:43;;;;;;;29.13;15.13;;;;;;;6.02;100.00;97975.75;5111246;28;20048;-93
2022/12/15 06:38:08;;;;;;;34.38;16.67;;;;;;;5.83;100.00;97962.91;5110583;28;20055;-94
2022/12/15 06:40:34;;;;;;;32.42;15.85;;;;;;;5.78;100.00;97961.28;5110308;28;20103;-93
2022/12/15 06:43:01;;;;;;;34.42;16.83;;;;;;;5.66;100.00;97967.66;5110412;28;20039;-92
2022/12/15 06:45:27;;;;;;;35.33;18.05;;;;;;;5.61;100.00;97985.34;5098006;28;20501;-94
2022/12/15 06:47:53;;;;;;;34.28;15.93;;;;;;;5.58;100.00;97978.38;5096655;28;20044;-92
2022/12/15 06:50:19;;;;;;;28.67;14.93;;;;;;;5.80;100.00;98004.31;5096636;28;20036;-93
2022/12/15 06:52:45;;;;;;;31.65;16.85;;;;;;;5.68;100.00;97966.75;5096585;28;20035;-93
2022/12/15 06:55:11;;;;;;;34.28;16.73;;;;;;;5.73;100.00;97990.38;5097303;28;20097;-94
2022/12/15 06:57:37;;;;;;;31.77;16.40;;;;;;;5.78;100.00;97996.44;5096671;28;20068;-93
2022/12/15 07:00:06;;;;;;;30.88;15.00;;;;;;;5.76;100.00;97992.94;5098116;28;20048;-93
2022/12/15 07:02:33;;;;;;;31.73;15.60;;;;;;;5.80;100.00;97981.44;5097607;28;20047;-93
2022/12/15 07:04:59;;;;;;;30.48;15.43;;;;;;;5.92;100.00;97989.13;5098304;28;20124;-94
2022/12/15 07:07:25;;;;;;;34.63;17.45;;;;;;;5.81;100.00;97967.34;5099227;28;20048;-94
2022/12/15 07:09:51;;;;;;;35.25;16.88;;;;;;;5.90;100.00;97985.63;5096965;28;20044;-93
2022/12/15 07:12:17;;;;;;;40.80;18.00;;;;;;;5.82;100.00;97979.63;5096756;28;20051;-94
2022/12/15 07:14:43;;;;;;;35.28;18.90;;;;;;;5.95;100.00;97996.97;5097639;28;20044;-94
2022/12/15 07:17:10;;;;;;;36.95;17.80;;;;;;;5.94;100.00;97997.91;5096575;28;20101;-93
2022/12/15 07:19:36;;;;;;;33.35;16.08;;;;;;;6.13;100.00;98015.97;5097979;28;20040;-94
2022/12/15 07:22:02;;;;;;;36.55;17.20;;;;;;;5.99;100.00;97984.59;5095919;28;20139;-93
2022/12/15 07:24:28;;;;;;;37.58;18.10;;;;;;;6.05;100.00;97991.50;5096628;28;20054;-92
2022/12/15 07:26:54;;;;;;;39.55;17.33;;;;;;;6.23;100.00;98011.38;5097021;28;20044;-91
2022/12/15 07:29:20;;;;;;;41.17;16.63;;;;;;;6.26;100.00;98016.56;5096081;28;20505;-93
2022/12/15 07:31:46;;;;;;;35.55;17.17;;;;;;;6.16;100.00;97994.81;5097654;28;20047;-94
2022/12/15 07:34:13;;;;;;;38.72;17.73;;;;;;;6.25;100.00;98018.34;5097113;28;20044;-94
2022/12/15 07:36:39;;;;;;;36.80;17.02;;;;;;;6.38;100.00;98034.81;5095093;28;20440;-93
2022/12/15 07:39:05;;;;;;;36.25;17.67;;;;;;;6.43;100.00;98025.00;5094709;28;20044;-94
2022/12/15 07:41:31;;;;;;;34.05;17.08;;;;;;;6.62;100.00;98017.53;5094784;28;20040;-94
2022/12/15 07:43:57;;;;;;;34.60;16.52;;;;;;;6.71;100.00;98003.22;5094990;28;20506;-94
2022/12/15 07:46:24;;;;;;;29.33;15.18;;;;;;;6.66;100.00;97995.41;5094802;28;20072;-93
2022/12/15 07:48:52;;;;;;;32.40;16.40;;;;;;;6.79;100.00;97991.56;5095062;28;20054;-94
2022/12/15 07:51:20;;;;;;;28.67;15.40;;;;;;;6.99;100.00;98019.28;5095021;28;20135;-92
2022/12/15 07:53:46;;;;;;;29.15;14.73;;;;;;;6.85;100.00;97994.97;5091223;28;20032;-94
2022/12/15 07:56:11;;;;;;;25.08;14.68;;;;;;;7.06;100.00;98018.22;5093696;28;20066;-92
2022/12/15 07:58:37;;;;;;;27.35;14.00;;;;;;;6.91;100.00;98015.94;5095384;28;20480;-95
2022/12/15 08:01:05;;;;;;;25.60;13.88;;;;;;;6.67;100.00;97988.34;5094281;28;20097;-92
2022/12/15 08:03:31;;;;;;;25.20;13.13;;;;;;;6.75;100.00;98013.69;5094556;28;20073;-93
2022/12/15 08:05:57;;;;;;;24.98;13.60;;;;;;;6.86;100.00;98025.78;5094451;28;20044;-92
2022/12/15 08:08:24;;;;;;;27.38;13.90;;;;;;;6.88;100.00;98032.75;5094500;28;20032;-93
2022/12/15 08:10:50;;;;;;;27.65;13.68;;;;;;;6.86;100.00;98023.13;5094340;28;20093;-93
2022/12/15 08:13:16;;;;;;;24.70;13.02;;;;;;;6.80;100.00;98005.66;5093818;28;20048;-94
2022/12/15 08:15:41;;;;;;;23.83;12.00;;;;;;;6.84;100.00;98014.38;5093314;28;20036;-93
2022/12/15 08:18:08;;;;;;;25.08;12.85;;;;;;;6.89;100.00;98007.19;5093682;28;20067;-94
2022/12/15 08:20:34;;;;;;;23.77;12.23;;;;;;;7.12;100.00;98035.72;5094432;28;20089;-93
2022/12/15 08:23:00;;;;;;;25.42;12.70;;;;;;;7.18;100.00;98036.44;5093625;28;20374;-93
2022/12/15 08:25:27;;;;;;;22.75;11.85;;;;;;;7.28;100.00;98036.19;5093835;28;20055;-93
2022/12/15 08:27:53;;;;;;;24.48;12.43;;;;;;;7.25;100.00;98015.97;5090840;28;20040;-94
2022/12/15 08:30:20;;;;;;;23.60;12.63;;;;;;;7.37;100.00;98023.59;5093269;28;20035;-94
2022/12/15 08:32:46;;;;;;;25.00;11.75;;;;;;;7.52;100.00;98030.25;5093176;28;20048;-92
2022/12/15 08:35:12;;;;;;;20.30;11.90;;;;;;;7.53;100.00;98004.69;5093723;28;20126;-93
2022/12/15 08:37:38;;;;;;;19.25;11.80;;;;;;;7.73;100.00;98027.94;5093825;28;20039;-94
2022/12/15 08:40:06;;;;;;;21.77;11.82;;;;;;;7.72;100.00;98032.38;5093901;28;20097;-93
2022/12/15 08:42:34;;;;;;;21.20;11.90;;;;;;;7.78;100.00;98026.88;5094107;28;20044;-92
2022/12/15 08:44:59;;;;;;;20.85;11.55;;;;;;;7.95;100.00;98028.19;5094149;28;20127;-93
2022/12/15 08:47:25;;;;;;;19.55;11.55;;;;;;;8.12;100.00;98027.72;5092890;28;20063;-94
2022/12/15 08:49:53;;;;;;;22.35;12.25;;;;;;;8.09;100.00;98002.22;5094414;28;20178;-93
2022/12/15 08:52:19;;;;;;;22.75;11.65;;;;;;;8.30;100.00;98016.56;5094019;28;20052;-93
2022/12/15 08:54:45;;;;;;;17.17;11.07;;;;;;;8.38;100.00;98040.19;5093401;28;20396;-93
2022/12/15 08:57:11;;;;;;;28.85;16.80;;;;;;;8.43;100.00;98030.34;5093245;28;20131;-93
2022/12/15 08:59:38;;;;;;;17.70;9.65;;;;;;;8.47;100.00;98012.59;5091628;28;20044;-93
2022/12/15 09:02:04;;;;;;;18.15;10.10;;;;;;;8.68;100.00;98024.31;5092040;28;20131;-93
2022/12/15 09:04:30;;;;;;;15.98;9.40;;;;;;;8.91;100.00;98028.88;5092679;28;20043;-94
2022/12/15 09:06:56;;;;;;;16.77;9.57;;;;;;;9.06;100.00;98028.38;5092855;28;20132;-93
2022/12/15 09:09:22;;;;;;;16.02;9.88;;;;;;;9.12;100.00;98014.91;5092652;28;20048;-93
2022/12/15 09:11:48;;;;;;;13.95;9.07;;;;;;;9.37;100.00;98030.88;5092953;28;20062;-93
2022/12/15 09:14:15;;;;;;;16.00;10.13;;;;;;;9.35;100.00;98022.09;5093089;28;20040;-93
2022/12/15 09:16:42;;;;;;;17.50;9.73;;;;;;;9.52;100.00;98037.44;5091973;28;20094;-93
2022/12/15 09:19:09;;;;;;;17.35;9.77;;;;;;;9.25;100.00;98015.38;5091355;28;20143;-93
2022/12/15 09:21:35;;;;;;;15.10;9.88;;;;;;;8.93;100.00;98021.72;5093384;28;20044;-95
2022/12/15 09:24:01;;;;;;;17.45;10.73;;;;;;;9.06;100.00;98054.88;5094092;28;20039;-93
2022/12/15 09:26:29;;;;;;;16.52;9.98;;;;;;;8.98;100.00;98047.19;5093293;28;20148;-92
2022/12/15 09:28:55;;;;;;;17.67;10.43;;;;;;;8.99;100.00;98034.78;5092198;28;20126;-94
2022/12/15 09:31:24;;;;;;;17.58;10.60;;;;;;;8.88;100.00;98003.31;5092354;28;20093;-93
2022/12/15 09:33:53;;;;;;;19.80;11.70;;;;;;;9.25;100.00;98028.63;5087099;28;20066;-95
2022/12/15 09:36:19;;;;;;;18.45;10.55;;;;;;;9.16;100.00;97999.75;5092061;28;20105;-93
2022/12/15 09:38:45;;;;;;;19.58;11.65;;;;;;;9.05;100.00;98008.06;5092912;28;20488;-94
2022/12/15 09:41:20;;;;;;;20.63;11.90;;;;;;;9.23;100.00;98028.66;5094147;28;20047;-94
2022/12/15 09:43:52;;;;;;;18.10;10.57;;;;;;;9.38;100.00;98032.59;5093853;28;20036;-94
2022/12/15 09:46:25;;;;;;;18.15;10.38;;;;;;;9.35;100.00;98018.59;5093114;28;20040;-92
2022/12/15 09:48:54;;;;;;;15.20;9.52;;;;;;;9.41;100.00;98007.72;5092964;28;20060;-94
2022/12/15 09:51:28;;;;;;;16.50;8.90;;;;;;;9.38;100.00;97979.53;5094477;28;20055;-94
2022/12/15 09:53:54;;;;;;;15.95;9.18;;;;;;;9.71;100.00;97979.25;5090460;28;20044;-93
2022/12/15 09:56:25;;;;;;;14.82;8.77;;;;;;;10.05;100.00;97978.88;5092992;28;20048;-93
2022/12/15 09:58:59;;;;;;;16.08;9.90;;;;;;;10.31;100.00;97993.00;5092804;28;20085;-94
2022/12/15 10:01:33;;;;;;;16.00;10.02;;;;;;;10.21;99.00;97963.22;5092766;28;20051;-94
2022/12/15 10:04:09;;;;;;;14.98;8.70;;;;;;;10.17;97.97;97953.66;5093562;28;20037;-93
2022/12/15 10:06:45;;;;;;;14.27;9.02;;;;;;;10.00;100.00;97994.13;5093064;28;20047;-94
2022/12/15 10:09:17;;;;;;;13.85;9.02;;;;;;;10.02;100.00;97964.84;5093486;28;20048;-95
2022/12/15 10:11:49;;;;;;;15.73;8.30;;;;;;;10.22;100.00;97966.75;5093318;28;20505;-93
2022/12/15 10:14:23;;;;;;;13.13;8.50;;;;;;;10.60;98.62;97991.84;5092995;28;20083;-94
2022/12/15 10:16:57;;;;;;;15.45;8.40;;;;;;;10.61;97.67;97972.31;5092502;28;20048;-94
2022/12/15 10:19:37;;;;;;;16.40;9.68;;;;;;;10.51;99.25;97948.81;5092273;28;20032;-94
2022/12/15 10:22:02;;;;;;;14.52;8.73;;;;;;;10.71;99.67;97970.13;5096310;28;20131;-94
2022/12/15 10:24:30;;;;;;;14.40;8.75;;;;;;;10.69;100.00;97937.44;5096725;28;20063;-94
2022/12/15 10:27:16;;;;;;;13.80;8.05;;;;;;;10.92;99.78;97948.94;5097014;28;20443;-93
2022/12/15 10:29:44;;;;;;;11.57;7.43;;;;;;;10.80;95.32;97905.97;5096792;28;20483;-94
2022/12/15 10:32:16;;;;;;;10.73;7.22;;;;;;;10.94;95.13;97937.28;5096667;28;20048;-94
2022/12/15 10:34:43;;;;;;;13.07;7.53;;;;;;;10.84;96.54;97922.63;5096957;28;20044;-94
2022/12/15 10:37:15;;;;;;;12.18;8.32;;;;;;;10.76;97.30;97912.34;5096649;28;20043;-94
2022/12/15 10:39:43;;;;;;;15.68;9.57;;;;;;;10.71;97.92;97932.06;5096447;28;20136;-95
2022/12/15 10:42:19;;;;;;;12.55;7.90;;;;;;;10.45;98.14;97934.84;5096848;28;20105;-94
2022/12/15 10:44:47;;;;;;;11.50;7.40;;;;;;;10.32;100.00;97957.50;5096604;28;20071;-94
2022/12/15 10:47:19;;;;;;;13.00;7.93;;;;;;;10.17;100.00;97923.53;5096059;28;20072;-94
2022/12/15 10:49:47;;;;;;;13.00;8.32;;;;;;;10.13;100.00;97924.56;5096951;28;20040;-94
2022/12/15 10:52:18;;;;;;;12.65;8.32;;;;;;;10.21;100.00;97947.28;5096779;28;20044;-93
2022/12/15 10:54:47;;;;;;;13.02;9.10;;;;;;;10.13;100.00;97930.78;5096038;28;20067;-93
2022/12/15 10:57:16;;;;;;;14.95;10.55;;;;;;;10.10;100.00;97940.63;5096587;28;20135;-94
2022/12/15 10:59:42;;;;;;;15.50;10.10;;;;;;;9.97;100.00;97926.97;5095959;28;20040;-94
2022/12/15 11:02:25;;;;;;;14.85;9.68;;;;;;;9.90;100.00;97928.13;5095580;28;20113;-95
2022/12/15 11:04:56;;;;;;;13.95;9.20;;;;;;;9.81;100.00;97918.72;5096105;28;20130;-94
2022/12/15 11:07:22;;;;;;;15.50;9.95;;;;;;;9.63;100.00;97899.91;5095689;28;20048;-94
2022/12/15 11:09:48;;;;;;;15.32;9.70;;;;;;;9.80;100.00;97919.63;5096124;28;20505;-94
2022/12/15 11:15:49;;;;;;;15.95;10.18;;;;;;;9.87;100.00;97908.72;5132540;27;20387;-93
2022/12/15 11:18:26;;;;;;;13.35;9.75;;;;;;;9.84;100.00;97866.34;5120249;28;20047;-94
2022/12/15 11:20:59;;;;;;;15.00;9.15;;;;;;;9.77;100.00;97850.72;5114722;28;20043;-91
2022/12/15 11:23:36;;;;;;;16.35;10.20;;;;;;;9.74;100.00;97846.41;5121293;28;20043;-92
2022/12/15 11:26:10;;;;;;;17.08;10.82;;;;;;;9.61;100.00;97831.88;5115057;28;20043;-92
2022/12/15 11:28:41;;;;;;;16.95;10.40;;;;;;;9.57;100.00;97836.41;5117680;28;20048;-95
2022/12/15 11:31:24;;;;;;;17.02;10.15;;;;;;;9.58;100.00;97816.91;5120441;28;20039;-96
2022/12/15 11:33:53;;;;;;;15.60;10.38;;;;;;;9.66;100.00;97825.44;5119310;28;20043;-94
2022/12/15 11:36:24;;;;;;;;;;;;;;;9.89;100.00;97863.53;5119998;28;20044;-94
2022/12/15 11:38:57;;;;;;;16.90;10.23;;;;;;;9.64;100.00;97818.47;5121008;28;19951;-95
2022/12/15 11:41:39;;;;;;;16.50;11.18;;;;;;;9.71;100.00;97833.22;5122102;28;20119;-93
2022/12/15 11:44:21;;;;;;;18.67;12.75;;;;;;;9.55;100.00;97811.72;5120609;28;20040;-93
2022/12/15 11:46:58;;;;;;;19.13;11.85;;;;;;;9.55;100.00;97811.72;5119582;28;20047;-95
2022/12/15 11:49:50;;;;;;;15.20;10.70;;;;;;;9.53;100.00;97799.44;5119814;28;20039;-94
2022/12/15 11:52:33;;;;;;;16.30;10.63;;;;;;;9.57;100.00;97807.22;5113726;28;20043;-94
2022/12/15 11:55:11;;;;;;;16.55;10.68;;;;;;;9.52;100.00;97787.97;5117689;28;20039;-95
2022/12/15 11:58:01;;;;;;;19.20;11.57;;;;;;;9.62;100.00;97773.41;5120465;28;20089;-93
2022/12/15 12:00:32;;;;;;;13.80;10.18;;;;;;;9.74;100.00;97773.88;5119468;28;20059;-94
2022/12/15 12:03:12;;;;;;;15.93;10.73;;;;;;;9.72;100.00;97776.56;5123121;28;20069;-93
2022/12/15 12:05:56;;;;;;;16.02;10.80;;;;;;;9.92;100.00;97804.97;5136121;27;20039;-93
2022/12/15 12:08:37;;;;;;;16.48;10.82;;;;;;;9.85;100.00;97796.41;5110962;28;20078;-92
2022/12/15 12:11:11;;;;;;;16.48;11.15;;;;;;;9.74;100.00;97758.78;5122921;28;20128;-94
2022/12/15 12:13:51;;;;;;;18.02;11.70;;;;;;;9.69;100.00;97752.78;5124992;28;20043;-94
2022/12/15 12:16:28;;;;;;;17.55;12.20;;;;;;;9.84;100.00;97772.53;5126978;27;20040;-91
2022/12/15 12:18:59;;;;;;;18.17;12.77;;;;;;;9.84;100.00;97761.94;5119667;28;20039;-92
2022/12/15 12:21:34;;;;;;;18.02;12.70;;;;;;;9.77;100.00;97747.19;5118170;28;20551;-94
2022/12/15 12:24:04;;;;;;;14.25;10.02;;;;;;;9.88;100.00;97735.19;5117580;28;20043;-93
2022/12/15 12:26:36;;;;;;;12.43;8.88;;;;;;;9.77;100.00;97702.91;5100260;28;20527;-93
2022/12/15 12:29:10;;;;;;;14.98;9.30;;;;;;;9.84;100.00;97707.03;5102975;28;20123;-92
2022/12/15 12:31:45;;;;;;;12.82;8.73;;;;;;;9.86;100.00;97712.28;5107581;28;20039;-94
2022/12/15 12:34:18;;;;;;;12.60;8.55;;;;;;;9.93;100.00;97713.78;5109509;28;20508;-93
2022/12/15 12:36:47;;;;;;;11.82;8.20;;;;;;;9.93;100.00;97711.13;5099507;28;20499;-94
2022/12/15 12:39:19;;;;;;;14.75;9.57;;;;;;;9.78;100.00;97695.78;5104768;28;20044;-95
2022/12/15 12:41:50;;;;;;;14.25;9.00;;;;;;;9.85;100.00;97724.69;5107329;28;20553;-94
2022/12/15 12:44:22;;;;;;;17.83;12.18;;;;;;;9.86;100.00;97746.81;5103587;28;20039;-94
2022/12/15 12:46:52;;;;;;;16.35;10.82;;;;;;;9.92;100.00;97773.09;5099420;28;20040;-93
2022/12/15 12:49:25;;;;;;;16.85;10.88;;;;;;;9.66;100.00;97729.88;5105739;28;20055;-92
2022/12/15 12:51:55;;;;;;;18.10;11.95;;;;;;;9.83;100.00;97763.72;5105396;28;20054;-94
2022/12/15 12:54:43;;;;;;;17.42;10.95;;;;;;;9.74;100.00;97739.34;5104650;28;20144;-93
2022/12/15 12:57:42;;;;;;;14.95;10.45;;;;;;;9.82;100.00;97740.78;5109174;28;20035;-91
2022/12/15 13:00:20;;;;;;;15.93;9.95;;;;;;;9.81;100.00;97733.72;5068806;28;20059;-93
2022/12/15 13:03:12;;;;;;;15.93;10.35;;;;;;;9.80;100.00;97741.72;5064189;28;20044;-94
2022/12/15 13:05:39;;;;;;;17.23;11.38;;;;;;;9.75;100.00;97735.75;5064105;28;20072;-94
2022/12/15 13:08:27;;;;;;;25.25;16.33;;;;;;;9.85;100.00;97731.81;5068028;28;20058;-93
2022/12/15 13:10:54;;;;;;;21.98;14.00;;;;;;;9.62;100.00;97714.16;5067257;28;20048;-92
2022/12/15 13:13:43;;;;;;;24.90;15.95;;;;;;;9.70;100.00;97735.94;5063717;28;20101;-92
2022/12/15 13:16:11;;;;;;;;;;;;;;;9.74;100.00;97752.63;5064715;28;20037;-92
2022/12/15 13:18:57;;;;;;;27.50;18.40;;;;;;;9.72;100.00;97746.50;5065553;28;20698;-91
2022/12/15 13:21:52;;;;;;;24.33;15.35;;;;;;;9.72;100.00;97752.69;5074413;28;20071;-92
2022/12/15 13:24:30;;;;;;;19.88;12.52;;;;;;;9.76;100.00;97746.31;5063100;28;20059;-92
2022/12/15 13:27:13;;;;;;;22.65;13.10;;;;;;;9.58;100.00;97716.03;5066070;28;20058;-90
2022/12/15 13:29:55;;;;;;;17.67;11.00;;;;;;;9.69;100.00;97730.69;5062569;28;20512;-91
2022/12/15 13:32:30;;;;;;;13.77;8.85;;;;;;;9.62;100.00;97716.78;5099561;28;20051;-91
2022/12/15 13:35:00;;;;;;;15.55;8.40;;;;;;;9.67;100.00;97722.78;5101644;28;20050;-92
2022/12/15 13:37:47;;;;;;;12.45;8.68;;;;;;;9.67;100.00;97728.09;5098225;28;20070;-91
2022/12/15 13:40:50;;;;;;;12.40;7.50;;;;;;;9.61;100.00;97717.75;5098616;28;20913;-92
2022/12/15 13:43:41;;;;;;;12.40;7.53;;;;;;;9.70;100.00;97732.44;5099664;28;20040;-91
2022/12/15 13:46:15;;;;;;;20.42;8.43;;;;;;;9.70;100.00;97730.63;5100086;28;20043;-90
2022/12/15 13:48:44;;;;;;;13.57;8.95;;;;;;;9.69;100.00;97728.88;5097756;28;20044;-92
2022/12/15 13:51:30;;;;;;;15.32;9.25;;;;;;;9.74;100.00;97736.69;5100891;28;20039;-91
2022/12/15 13:54:00;;;;;;;14.18;8.82;;;;;;;9.54;100.00;97706.50;5101644;28;20036;-93
2022/12/15 13:56:53;;;;;;;16.08;9.20;;;;;;;9.80;100.00;97721.38;5101720;28;20038;-94
2022/12/15 13:59:30;;;;;;;15.70;9.85;;;;;;;9.86;100.00;97720.25;5097088;28;20039;-93
2022/12/15 14:01:55;;;;;;;13.63;8.05;;;;;;;9.80;100.00;97699.25;5100180;28;20036;-92
2022/12/15 14:04:22;;;;;;;15.13;9.27;;;;;;;9.71;100.00;97695.19;5098912;28;20039;-91
2022/12/15 14:06:50;;;;;;;12.13;7.90;;;;;;;9.59;100.00;97667.38;5101341;27;20039;-90